sensor_id;sensor_type;location;lat;lon;timestamp;temperature;humidity
31597;DHT22;18201;50.978;7.034;2023-06-14T00:00:10;18.70;99.90
31597;DHT22;18201;50.978;7.034;2023-06-14T00:00:42;18.70;99.90
31597;DHT22;18201;50.978;7.034;2023-06-14T00:01:14;18.70;99.90
31597;DHT22;18201;50.978;7.034;2023-06-14T00:01:45;18.70;99.90
31597;DHT22;18201;50.978;7.034;2023-06-14T00:02:16;18.70;99.90
31597;DHT22;18201;50.978;7.034;2023-06-14T00:02:48;18.70;99.90
31597;DHT22;18201;50.978;7.034;2023-06-14T00:03:19;18.70;99.90
31597;DHT22;18201;50.978;7.034;2023-06-14T00:03:52;18.60;99.90
31597;DHT22;18201;50.978;7.034;2023-06-14T00:04:24;18.70;99.90
31597;DHT22;18201;50.978;7.034;2023-06-14T00:04:55;18.70;99.90
31597;DHT22;18201;50.978;7.034;2023-06-14T00:05:27;18.70;99.90
31597;DHT22;18201;50.978;7.034;2023-06-14T00:06:00;18.60;99.90
31597;DHT22;18201;50.978;7.034;2023-06-14T00:06:31;18.60;99.90
31597;DHT22;18201;50.978;7.034;2023-06-14T00:07:02;18.60;99.90
31597;DHT22;18201;50.978;7.034;2023-06-14T00:07:34;18.70;99.90
31597;DHT22;18201;50.978;7.034;2023-06-14T00:08:06;18.60;99.90
31597;DHT22;18201;50.978;7.034;2023-06-14T00:08:37;18.60;99.90
31597;DHT22;18201;50.978;7.034;2023-06-14T00:09:10;18.60;99.90
31597;DHT22;18201;50.978;7.034;2023-06-14T00:09:41;18.60;99.90
31597;DHT22;18201;50.978;7.034;2023-06-14T00:10:14;18.60;99.90
31597;DHT22;18201;50.978;7.034;2023-06-14T00:10:47;18.60;99.90
31597;DHT22;18201;50.978;7.034;2023-06-14T00:11:18;18.50;99.90
31597;DHT22;18201;50.978;7.034;2023-06-14T00:11:48;18.50;99.90
31597;DHT22;18201;50.978;7.034;2023-06-14T00:12:20;18.50;99.90
31597;DHT22;18201;50.978;7.034;2023-06-14T00:12:51;18.50;99.90
31597;DHT22;18201;50.978;7.034;2023-06-14T00:13:22;18.50;99.90
31597;DHT22;18201;50.978;7.034;2023-06-14T00:13:54;18.50;99.90
31597;DHT22;18201;50.978;7.034;2023-06-14T00:14:25;18.50;99.90
31597;DHT22;18201;50.978;7.034;2023-06-14T00:14:58;18.40;99.90
31597;DHT22;18201;50.978;7.034;2023-06-14T00:15:32;18.50;99.90
31597;DHT22;18201;50.978;7.034;2023-06-14T00:16:04;18.40;99.90
31597;DHT22;18201;50.978;7.034;2023-06-14T00:16:35;18.50;99.90
31597;DHT22;18201;50.978;7.034;2023-06-14T00:17:07;18.40;99.90
31597;DHT22;18201;50.978;7.034;2023-06-14T00:17:39;18.40;99.90
31597;DHT22;18201;50.978;7.034;2023-06-14T00:18:10;18.40;99.90
31597;DHT22;18201;50.978;7.034;2023-06-14T00:18:42;18.40;99.90
31597;DHT22;18201;50.978;7.034;2023-06-14T00:19:14;18.40;99.90
31597;DHT22;18201;50.978;7.034;2023-06-14T00:19:46;18.40;99.90
31597;DHT22;18201;50.978;7.034;2023-06-14T00:20:17;18.40;99.90
31597;DHT22;18201;50.978;7.034;2023-06-14T00:20:49;18.40;99.90
31597;DHT22;18201;50.978;7.034;2023-06-14T00:21:21;18.40;99.90
31597;DHT22;18201;50.978;7.034;2023-06-14T00:21:52;18.40;99.90
31597;DHT22;18201;50.978;7.034;2023-06-14T00:22:23;18.40;99.90
31597;DHT22;18201;50.978;7.034;2023-06-14T00:22:55;18.40;99.90
31597;DHT22;18201;50.978;7.034;2023-06-14T00:23:27;18.40;99.90
31597;DHT22;18201;50.978;7.034;2023-06-14T00:23:58;18.30;99.90
31597;DHT22;18201;50.978;7.034;2023-06-14T00:24:29;18.30;99.90
31597;DHT22;18201;50.978;7.034;2023-06-14T00:25:01;18.30;99.90
31597;DHT22;18201;50.978;7.034;2023-06-14T00:25:33;18.30;99.90
31597;DHT22;18201;50.978;7.034;2023-06-14T00:26:04;18.30;99.90
31597;DHT22;18201;50.978;7.034;2023-06-14T00:26:36;18.30;99.90
31597;DHT22;18201;50.978;7.034;2023-06-14T00:27:07;18.30;99.90
31597;DHT22;18201;50.978;7.034;2023-06-14T00:27:38;18.30;99.90
31597;DHT22;18201;50.978;7.034;2023-06-14T00:28:09;18.20;99.90
31597;DHT22;18201;50.978;7.034;2023-06-14T00:28:40;18.20;99.90
31597;DHT22;18201;50.978;7.034;2023-06-14T00:29:11;18.20;99.90
31597;DHT22;18201;50.978;7.034;2023-06-14T00:29:42;18.20;99.90
31597;DHT22;18201;50.978;7.034;2023-06-14T00:30:14;18.20;99.90
31597;DHT22;18201;50.978;7.034;2023-06-14T00:30:45;18.20;99.90
31597;DHT22;18201;50.978;7.034;2023-06-14T00:31:17;18.20;99.90
31597;DHT22;18201;50.978;7.034;2023-06-14T00:31:48;18.20;99.90
31597;DHT22;18201;50.978;7.034;2023-06-14T00:32:19;18.20;99.90
31597;DHT22;18201;50.978;7.034;2023-06-14T00:32:50;18.20;99.90
31597;DHT22;18201;50.978;7.034;2023-06-14T00:33:22;18.10;99.90
31597;DHT22;18201;50.978;7.034;2023-06-14T00:33:53;18.10;99.90
31597;DHT22;18201;50.978;7.034;2023-06-14T00:34:24;18.10;99.90
31597;DHT22;18201;50.978;7.034;2023-06-14T00:34:55;18.10;99.90
31597;DHT22;18201;50.978;7.034;2023-06-14T00:35:27;18.10;99.90
31597;DHT22;18201;50.978;7.034;2023-06-14T00:35:58;18.10;99.90
31597;DHT22;18201;50.978;7.034;2023-06-14T00:36:28;18.10;99.90
31597;DHT22;18201;50.978;7.034;2023-06-14T00:37:01;18.10;99.90
31597;DHT22;18201;50.978;7.034;2023-06-14T00:37:32;18.10;99.90
31597;DHT22;18201;50.978;7.034;2023-06-14T00:38:03;18.10;99.90
31597;DHT22;18201;50.978;7.034;2023-06-14T00:38:34;18.10;99.90
31597;DHT22;18201;50.978;7.034;2023-06-14T00:39:05;18.00;99.90
31597;DHT22;18201;50.978;7.034;2023-06-14T00:39:36;18.00;99.90
31597;DHT22;18201;50.978;7.034;2023-06-14T00:40:08;18.00;99.90
31597;DHT22;18201;50.978;7.034;2023-06-14T00:40:41;18.00;99.90
31597;DHT22;18201;50.978;7.034;2023-06-14T00:41:12;18.00;99.90
31597;DHT22;18201;50.978;7.034;2023-06-14T00:41:43;18.00;99.90
31597;DHT22;18201;50.978;7.034;2023-06-14T00:42:23;18.00;99.90
31597;DHT22;18201;50.978;7.034;2023-06-14T00:42:55;18.00;99.90
31597;DHT22;18201;50.978;7.034;2023-06-14T00:43:26;17.90;99.90
31597;DHT22;18201;50.978;7.034;2023-06-14T00:43:58;18.00;99.90
31597;DHT22;18201;50.978;7.034;2023-06-14T00:44:30;18.00;99.90
31597;DHT22;18201;50.978;7.034;2023-06-14T00:45:01;17.90;99.90
31597;DHT22;18201;50.978;7.034;2023-06-14T00:45:33;17.90;99.90
31597;DHT22;18201;50.978;7.034;2023-06-14T00:46:06;17.90;99.90
31597;DHT22;18201;50.978;7.034;2023-06-14T00:46:37;17.90;99.90
31597;DHT22;18201;50.978;7.034;2023-06-14T00:47:09;17.90;99.90
31597;DHT22;18201;50.978;7.034;2023-06-14T00:47:41;18.00;99.90
31597;DHT22;18201;50.978;7.034;2023-06-14T00:48:14;17.90;99.90
31597;DHT22;18201;50.978;7.034;2023-06-14T00:48:46;17.90;99.90
31597;DHT22;18201;50.978;7.034;2023-06-14T00:49:18;17.90;99.90
31597;DHT22;18201;50.978;7.034;2023-06-14T00:49:50;17.90;99.90
31597;DHT22;18201;50.978;7.034;2023-06-14T00:50:22;17.90;99.90
31597;DHT22;18201;50.978;7.034;2023-06-14T00:50:55;17.90;99.90
31597;DHT22;18201;50.978;7.034;2023-06-14T00:51:26;17.90;99.90
31597;DHT22;18201;50.978;7.034;2023-06-14T00:51:58;17.90;99.90
31597;DHT22;18201;50.978;7.034;2023-06-14T00:52:30;17.90;99.90
31597;DHT22;18201;50.978;7.034;2023-06-14T00:53:03;17.80;99.90
31597;DHT22;18201;50.978;7.034;2023-06-14T00:53:33;17.80;99.90
31597;DHT22;18201;50.978;7.034;2023-06-14T00:54:06;17.80;99.90
31597;DHT22;18201;50.978;7.034;2023-06-14T00:54:38;17.80;99.90
31597;DHT22;18201;50.978;7.034;2023-06-14T00:55:09;17.80;99.90
31597;DHT22;18201;50.978;7.034;2023-06-14T00:55:41;17.80;99.90
31597;DHT22;18201;50.978;7.034;2023-06-14T00:56:13;17.70;99.90
31597;DHT22;18201;50.978;7.034;2023-06-14T00:56:45;17.80;99.90
31597;DHT22;18201;50.978;7.034;2023-06-14T00:57:16;17.70;99.90
31597;DHT22;18201;50.978;7.034;2023-06-14T00:57:49;17.70;99.90
31597;DHT22;18201;50.978;7.034;2023-06-14T00:58:19;17.70;99.90
31597;DHT22;18201;50.978;7.034;2023-06-14T00:58:51;17.70;99.90
31597;DHT22;18201;50.978;7.034;2023-06-14T00:59:23;17.70;99.90
31597;DHT22;18201;50.978;7.034;2023-06-14T00:59:55;17.70;99.90
31597;DHT22;18201;50.978;7.034;2023-06-14T01:00:26;17.70;99.90
31597;DHT22;18201;50.978;7.034;2023-06-14T01:00:59;17.70;99.90
31597;DHT22;18201;50.978;7.034;2023-06-14T01:01:30;17.70;99.90
31597;DHT22;18201;50.978;7.034;2023-06-14T01:02:03;17.70;99.90
31597;DHT22;18201;50.978;7.034;2023-06-14T01:02:35;17.70;99.90
31597;DHT22;18201;50.978;7.034;2023-06-14T01:03:07;17.60;99.90
31597;DHT22;18201;50.978;7.034;2023-06-14T01:03:38;17.60;99.90
31597;DHT22;18201;50.978;7.034;2023-06-14T01:04:11;17.60;99.90
31597;DHT22;18201;50.978;7.034;2023-06-14T01:04:45;17.60;1.00
31597;DHT22;18201;50.978;7.034;2023-06-14T01:05:18;17.60;1.00
31597;DHT22;18201;50.978;7.034;2023-06-14T01:05:52;17.60;1.00
31597;DHT22;18201;50.978;7.034;2023-06-14T01:06:30;17.60;1.00
31597;DHT22;18201;50.978;7.034;2023-06-14T01:07:09;17.60;1.00
31597;DHT22;18201;50.978;7.034;2023-06-14T01:07:55;17.50;1.00
31597;DHT22;18201;50.978;7.034;2023-06-14T01:08:44;17.60;1.00
31597;DHT22;18201;50.978;7.034;2023-06-14T01:09:22;17.50;1.00
31597;DHT22;18201;50.978;7.034;2023-06-14T01:10:05;17.50;1.00
31597;DHT22;18201;50.978;7.034;2023-06-14T01:10:49;17.50;1.00
31597;DHT22;18201;50.978;7.034;2023-06-14T01:11:28;17.50;1.00
31597;DHT22;18201;50.978;7.034;2023-06-14T01:12:21;17.50;1.00
31597;DHT22;18201;50.978;7.034;2023-06-14T01:12:58;17.50;1.00
31597;DHT22;18201;50.978;7.034;2023-06-14T01:13:35;17.50;1.00
31597;DHT22;18201;50.978;7.034;2023-06-14T01:14:07;17.40;1.00
31597;DHT22;18201;50.978;7.034;2023-06-14T01:14:41;17.40;1.00
31597;DHT22;18201;50.978;7.034;2023-06-14T01:15:13;17.40;1.00
31597;DHT22;18201;50.978;7.034;2023-06-14T01:15:45;17.40;1.00
31597;DHT22;18201;50.978;7.034;2023-06-14T01:16:17;17.40;1.00
31597;DHT22;18201;50.978;7.034;2023-06-14T01:16:48;17.40;1.00
31597;DHT22;18201;50.978;7.034;2023-06-14T01:17:24;17.40;1.00
31597;DHT22;18201;50.978;7.034;2023-06-14T01:17:57;17.40;1.00
31597;DHT22;18201;50.978;7.034;2023-06-14T01:18:34;17.40;1.00
31597;DHT22;18201;50.978;7.034;2023-06-14T01:19:06;17.40;1.00
31597;DHT22;18201;50.978;7.034;2023-06-14T01:19:43;17.40;1.00
31597;DHT22;18201;50.978;7.034;2023-06-14T01:20:15;17.40;1.00
31597;DHT22;18201;50.978;7.034;2023-06-14T01:20:48;17.40;1.00
31597;DHT22;18201;50.978;7.034;2023-06-14T01:21:21;17.40;1.00
31597;DHT22;18201;50.978;7.034;2023-06-14T01:21:52;17.30;1.00
31597;DHT22;18201;50.978;7.034;2023-06-14T01:22:25;17.30;1.00
31597;DHT22;18201;50.978;7.034;2023-06-14T01:22:58;17.30;1.00
31597;DHT22;18201;50.978;7.034;2023-06-14T01:23:33;17.20;1.00
31597;DHT22;18201;50.978;7.034;2023-06-14T01:24:05;17.20;1.00
31597;DHT22;18201;50.978;7.034;2023-06-14T01:24:36;17.20;1.00
31597;DHT22;18201;50.978;7.034;2023-06-14T01:25:09;17.10;1.00
31597;DHT22;18201;50.978;7.034;2023-06-14T01:25:42;17.20;1.00
31597;DHT22;18201;50.978;7.034;2023-06-14T01:26:15;17.10;1.00
31597;DHT22;18201;50.978;7.034;2023-06-14T01:26:47;17.10;1.00
31597;DHT22;18201;50.978;7.034;2023-06-14T01:27:23;17.20;1.00
31597;DHT22;18201;50.978;7.034;2023-06-14T01:27:58;17.10;1.00
31597;DHT22;18201;50.978;7.034;2023-06-14T01:28:31;17.10;1.00
31597;DHT22;18201;50.978;7.034;2023-06-14T01:29:05;17.00;1.00
31597;DHT22;18201;50.978;7.034;2023-06-14T01:29:37;17.10;1.00
31597;DHT22;18201;50.978;7.034;2023-06-14T01:30:09;17.00;1.00
31597;DHT22;18201;50.978;7.034;2023-06-14T01:30:41;17.00;1.00
31597;DHT22;18201;50.978;7.034;2023-06-14T01:31:19;17.00;1.00
31597;DHT22;18201;50.978;7.034;2023-06-14T01:31:53;17.00;1.00
31597;DHT22;18201;50.978;7.034;2023-06-14T01:32:25;17.00;1.00
31597;DHT22;18201;50.978;7.034;2023-06-14T01:32:58;17.00;1.00
31597;DHT22;18201;50.978;7.034;2023-06-14T01:33:29;17.00;1.00
31597;DHT22;18201;50.978;7.034;2023-06-14T01:34:00;17.00;1.00
31597;DHT22;18201;50.978;7.034;2023-06-14T01:34:32;16.90;1.00
31597;DHT22;18201;50.978;7.034;2023-06-14T01:35:04;16.90;1.00
31597;DHT22;18201;50.978;7.034;2023-06-14T01:35:36;16.90;1.00
31597;DHT22;18201;50.978;7.034;2023-06-14T01:36:08;16.90;1.00
31597;DHT22;18201;50.978;7.034;2023-06-14T01:36:43;17.00;1.00
31597;DHT22;18201;50.978;7.034;2023-06-14T01:37:14;16.90;1.00
31597;DHT22;18201;50.978;7.034;2023-06-14T01:37:47;17.00;1.00
31597;DHT22;18201;50.978;7.034;2023-06-14T01:38:21;17.00;1.00
31597;DHT22;18201;50.978;7.034;2023-06-14T01:38:53;16.90;1.00
31597;DHT22;18201;50.978;7.034;2023-06-14T01:39:26;16.90;1.00
31597;DHT22;18201;50.978;7.034;2023-06-14T01:39:58;17.00;1.00
31597;DHT22;18201;50.978;7.034;2023-06-14T01:40:31;17.00;1.00
31597;DHT22;18201;50.978;7.034;2023-06-14T01:41:04;17.00;1.00
31597;DHT22;18201;50.978;7.034;2023-06-14T01:41:35;16.90;1.00
31597;DHT22;18201;50.978;7.034;2023-06-14T01:42:07;16.90;1.00
31597;DHT22;18201;50.978;7.034;2023-06-14T01:42:39;16.90;6.20
31597;DHT22;18201;50.978;7.034;2023-06-14T01:43:10;16.90;1.00
31597;DHT22;18201;50.978;7.034;2023-06-14T01:43:42;16.90;8.20
31597;DHT22;18201;50.978;7.034;2023-06-14T01:44:16;16.90;1.00
31597;DHT22;18201;50.978;7.034;2023-06-14T01:44:47;16.90;1.00
31597;DHT22;18201;50.978;7.034;2023-06-14T01:45:19;16.90;1.00
31597;DHT22;18201;50.978;7.034;2023-06-14T01:45:53;16.90;2.10
31597;DHT22;18201;50.978;7.034;2023-06-14T01:46:25;16.90;1.00
31597;DHT22;18201;50.978;7.034;2023-06-14T01:46:57;16.90;1.00
31597;DHT22;18201;50.978;7.034;2023-06-14T01:47:28;16.90;1.00
31597;DHT22;18201;50.978;7.034;2023-06-14T01:48:00;16.90;1.00
31597;DHT22;18201;50.978;7.034;2023-06-14T01:48:31;16.90;1.00
31597;DHT22;18201;50.978;7.034;2023-06-14T01:49:03;16.90;53.60
31597;DHT22;18201;50.978;7.034;2023-06-14T01:49:34;16.90;22.70
31597;DHT22;18201;50.978;7.034;2023-06-14T01:50:06;16.80;1.00
31597;DHT22;18201;50.978;7.034;2023-06-14T01:50:37;16.90;12.90
31597;DHT22;18201;50.978;7.034;2023-06-14T01:51:09;16.90;10.70
31597;DHT22;18201;50.978;7.034;2023-06-14T01:51:40;16.90;1.00
31597;DHT22;18201;50.978;7.034;2023-06-14T01:52:11;16.90;1.00
31597;DHT22;18201;50.978;7.034;2023-06-14T01:52:42;16.90;1.00
31597;DHT22;18201;50.978;7.034;2023-06-14T01:53:14;16.90;1.00
31597;DHT22;18201;50.978;7.034;2023-06-14T01:53:46;16.90;1.00
31597;DHT22;18201;50.978;7.034;2023-06-14T01:54:17;16.80;1.00
31597;DHT22;18201;50.978;7.034;2023-06-14T01:54:49;16.80;1.00
31597;DHT22;18201;50.978;7.034;2023-06-14T01:55:20;16.80;1.00
31597;DHT22;18201;50.978;7.034;2023-06-14T01:55:52;16.90;1.00
31597;DHT22;18201;50.978;7.034;2023-06-14T01:56:24;16.80;1.00
31597;DHT22;18201;50.978;7.034;2023-06-14T01:56:57;16.80;1.00
31597;DHT22;18201;50.978;7.034;2023-06-14T01:57:28;16.80;1.00
31597;DHT22;18201;50.978;7.034;2023-06-14T01:57:59;16.80;1.00
31597;DHT22;18201;50.978;7.034;2023-06-14T01:58:31;16.80;1.00
31597;DHT22;18201;50.978;7.034;2023-06-14T01:59:02;16.80;1.00
31597;DHT22;18201;50.978;7.034;2023-06-14T01:59:33;16.80;30.00
31597;DHT22;18201;50.978;7.034;2023-06-14T02:00:06;16.80;3.20
31597;DHT22;18201;50.978;7.034;2023-06-14T02:00:41;16.70;13.20
31597;DHT22;18201;50.978;7.034;2023-06-14T02:01:13;16.70;11.00
31597;DHT22;18201;50.978;7.034;2023-06-14T02:01:46;16.70;17.10
31597;DHT22;18201;50.978;7.034;2023-06-14T02:02:17;16.70;28.70
31597;DHT22;18201;50.978;7.034;2023-06-14T02:02:48;16.70;76.10
31597;DHT22;18201;50.978;7.034;2023-06-14T02:03:20;16.60;76.10
31597;DHT22;18201;50.978;7.034;2023-06-14T02:03:51;16.60;99.90
31597;DHT22;18201;50.978;7.034;2023-06-14T02:04:24;16.60;99.90
31597;DHT22;18201;50.978;7.034;2023-06-14T02:04:55;16.60;99.90
31597;DHT22;18201;50.978;7.034;2023-06-14T02:05:27;16.50;99.90
31597;DHT22;18201;50.978;7.034;2023-06-14T02:05:58;16.50;99.90
31597;DHT22;18201;50.978;7.034;2023-06-14T02:06:29;16.50;99.90
31597;DHT22;18201;50.978;7.034;2023-06-14T02:07:01;16.50;99.90
31597;DHT22;18201;50.978;7.034;2023-06-14T02:07:32;16.40;99.90
31597;DHT22;18201;50.978;7.034;2023-06-14T02:08:03;16.40;99.90
31597;DHT22;18201;50.978;7.034;2023-06-14T02:08:35;16.40;99.90
31597;DHT22;18201;50.978;7.034;2023-06-14T02:09:07;16.40;99.90
31597;DHT22;18201;50.978;7.034;2023-06-14T02:09:38;16.30;99.90
31597;DHT22;18201;50.978;7.034;2023-06-14T02:10:10;16.40;99.90
31597;DHT22;18201;50.978;7.034;2023-06-14T02:10:41;16.30;99.90
31597;DHT22;18201;50.978;7.034;2023-06-14T02:11:12;16.30;1.00
31597;DHT22;18201;50.978;7.034;2023-06-14T02:11:44;16.30;1.00
31597;DHT22;18201;50.978;7.034;2023-06-14T02:12:15;16.30;1.00
31597;DHT22;18201;50.978;7.034;2023-06-14T02:12:46;16.30;1.00
31597;DHT22;18201;50.978;7.034;2023-06-14T02:13:16;16.30;99.90
31597;DHT22;18201;50.978;7.034;2023-06-14T02:13:48;16.20;99.90
31597;DHT22;18201;50.978;7.034;2023-06-14T02:14:20;16.30;1.00
31597;DHT22;18201;50.978;7.034;2023-06-14T02:14:51;16.30;1.00
31597;DHT22;18201;50.978;7.034;2023-06-14T02:15:22;16.30;99.90
31597;DHT22;18201;50.978;7.034;2023-06-14T02:15:54;16.20;99.90
31597;DHT22;18201;50.978;7.034;2023-06-14T02:16:25;16.20;99.90
31597;DHT22;18201;50.978;7.034;2023-06-14T02:16:58;16.20;99.90
31597;DHT22;18201;50.978;7.034;2023-06-14T02:17:31;16.20;99.90
31597;DHT22;18201;50.978;7.034;2023-06-14T02:18:02;16.20;99.90
31597;DHT22;18201;50.978;7.034;2023-06-14T02:18:33;16.20;99.90
31597;DHT22;18201;50.978;7.034;2023-06-14T02:19:05;16.20;99.90
31597;DHT22;18201;50.978;7.034;2023-06-14T02:19:36;16.20;99.90
31597;DHT22;18201;50.978;7.034;2023-06-14T02:20:08;16.20;99.90
31597;DHT22;18201;50.978;7.034;2023-06-14T02:20:40;16.20;99.90
31597;DHT22;18201;50.978;7.034;2023-06-14T02:21:11;16.20;99.90
31597;DHT22;18201;50.978;7.034;2023-06-14T02:21:43;16.20;99.90
31597;DHT22;18201;50.978;7.034;2023-06-14T02:22:14;16.20;99.90
31597;DHT22;18201;50.978;7.034;2023-06-14T02:22:46;16.30;1.00
31597;DHT22;18201;50.978;7.034;2023-06-14T02:23:17;16.20;1.00
31597;DHT22;18201;50.978;7.034;2023-06-14T02:23:48;16.20;1.00
31597;DHT22;18201;50.978;7.034;2023-06-14T02:24:21;16.20;1.00
31597;DHT22;18201;50.978;7.034;2023-06-14T02:24:54;16.20;1.00
31597;DHT22;18201;50.978;7.034;2023-06-14T02:25:25;16.20;1.00
31597;DHT22;18201;50.978;7.034;2023-06-14T02:25:58;16.20;1.00
31597;DHT22;18201;50.978;7.034;2023-06-14T02:26:29;16.20;1.00
31597;DHT22;18201;50.978;7.034;2023-06-14T02:27:00;16.20;1.00
31597;DHT22;18201;50.978;7.034;2023-06-14T02:27:32;16.10;99.90
31597;DHT22;18201;50.978;7.034;2023-06-14T02:28:04;16.10;99.90
31597;DHT22;18201;50.978;7.034;2023-06-14T02:28:34;16.10;1.00
31597;DHT22;18201;50.978;7.034;2023-06-14T02:29:07;16.10;99.90
31597;DHT22;18201;50.978;7.034;2023-06-14T02:29:40;16.10;1.00
31597;DHT22;18201;50.978;7.034;2023-06-14T02:30:12;16.20;1.00
31597;DHT22;18201;50.978;7.034;2023-06-14T02:30:44;16.10;1.00
31597;DHT22;18201;50.978;7.034;2023-06-14T02:31:14;16.10;1.00
31597;DHT22;18201;50.978;7.034;2023-06-14T02:31:46;16.10;36.30
31597;DHT22;18201;50.978;7.034;2023-06-14T02:32:19;16.20;64.10
31597;DHT22;18201;50.978;7.034;2023-06-14T02:32:49;16.20;1.00
31597;DHT22;18201;50.978;7.034;2023-06-14T02:33:21;16.20;1.00
31597;DHT22;18201;50.978;7.034;2023-06-14T02:33:53;16.10;1.00
31597;DHT22;18201;50.978;7.034;2023-06-14T02:34:24;16.20;1.00
31597;DHT22;18201;50.978;7.034;2023-06-14T02:34:55;16.20;1.00
31597;DHT22;18201;50.978;7.034;2023-06-14T02:35:26;16.20;1.00
31597;DHT22;18201;50.978;7.034;2023-06-14T02:35:58;16.20;1.00
31597;DHT22;18201;50.978;7.034;2023-06-14T02:36:29;16.20;1.00
31597;DHT22;18201;50.978;7.034;2023-06-14T02:37:00;16.10;1.00
31597;DHT22;18201;50.978;7.034;2023-06-14T02:37:33;16.20;1.00
31597;DHT22;18201;50.978;7.034;2023-06-14T02:38:04;16.10;1.00
31597;DHT22;18201;50.978;7.034;2023-06-14T02:38:35;16.20;1.00
31597;DHT22;18201;50.978;7.034;2023-06-14T02:39:07;16.20;1.00
31597;DHT22;18201;50.978;7.034;2023-06-14T02:39:41;16.20;1.00
31597;DHT22;18201;50.978;7.034;2023-06-14T02:40:12;16.10;1.00
31597;DHT22;18201;50.978;7.034;2023-06-14T02:40:43;16.20;99.90
31597;DHT22;18201;50.978;7.034;2023-06-14T02:41:15;16.20;99.90
31597;DHT22;18201;50.978;7.034;2023-06-14T02:41:45;16.10;82.90
31597;DHT22;18201;50.978;7.034;2023-06-14T02:42:16;16.20;59.50
31597;DHT22;18201;50.978;7.034;2023-06-14T02:42:48;16.20;29.30
31597;DHT22;18201;50.978;7.034;2023-06-14T02:43:19;16.10;35.30
31597;DHT22;18201;50.978;7.034;2023-06-14T02:43:50;16.20;1.00
31597;DHT22;18201;50.978;7.034;2023-06-14T02:44:24;16.20;99.90
31597;DHT22;18201;50.978;7.034;2023-06-14T02:44:57;16.20;99.90
31597;DHT22;18201;50.978;7.034;2023-06-14T02:45:28;16.20;99.90
31597;DHT22;18201;50.978;7.034;2023-06-14T02:45:59;16.20;99.90
31597;DHT22;18201;50.978;7.034;2023-06-14T02:46:30;16.10;99.90
31597;DHT22;18201;50.978;7.034;2023-06-14T02:47:01;16.10;99.90
31597;DHT22;18201;50.978;7.034;2023-06-14T02:47:32;16.20;99.90
31597;DHT22;18201;50.978;7.034;2023-06-14T02:48:04;16.10;99.90
31597;DHT22;18201;50.978;7.034;2023-06-14T02:48:36;16.10;99.90
31597;DHT22;18201;50.978;7.034;2023-06-14T02:49:06;16.10;99.90
31597;DHT22;18201;50.978;7.034;2023-06-14T02:49:37;16.10;99.90
31597;DHT22;18201;50.978;7.034;2023-06-14T02:50:09;16.10;99.90
31597;DHT22;18201;50.978;7.034;2023-06-14T02:50:40;16.10;1.00
31597;DHT22;18201;50.978;7.034;2023-06-14T02:51:11;16.20;99.90
31597;DHT22;18201;50.978;7.034;2023-06-14T02:51:43;16.20;99.90
31597;DHT22;18201;50.978;7.034;2023-06-14T02:52:14;16.20;99.90
31597;DHT22;18201;50.978;7.034;2023-06-14T02:52:45;16.20;99.90
31597;DHT22;18201;50.978;7.034;2023-06-14T02:53:16;16.20;1.00
31597;DHT22;18201;50.978;7.034;2023-06-14T02:53:48;16.20;99.90
31597;DHT22;18201;50.978;7.034;2023-06-14T02:54:18;16.20;99.90
31597;DHT22;18201;50.978;7.034;2023-06-14T02:54:51;16.20;1.00
31597;DHT22;18201;50.978;7.034;2023-06-14T02:55:24;16.20;6.00
31597;DHT22;18201;50.978;7.034;2023-06-14T02:55:55;16.10;1.00
31597;DHT22;18201;50.978;7.034;2023-06-14T02:56:27;16.10;1.00
31597;DHT22;18201;50.978;7.034;2023-06-14T02:56:59;16.10;1.00
31597;DHT22;18201;50.978;7.034;2023-06-14T02:57:30;16.10;1.00
31597;DHT22;18201;50.978;7.034;2023-06-14T02:58:01;16.00;1.00
31597;DHT22;18201;50.978;7.034;2023-06-14T02:58:33;16.00;41.50
31597;DHT22;18201;50.978;7.034;2023-06-14T02:59:04;16.00;88.90
31597;DHT22;18201;50.978;7.034;2023-06-14T02:59:35;16.00;66.60
31597;DHT22;18201;50.978;7.034;2023-06-14T03:00:07;15.90;30.30
31597;DHT22;18201;50.978;7.034;2023-06-14T03:00:43;15.90;99.90
31597;DHT22;18201;50.978;7.034;2023-06-14T03:01:14;15.90;1.00
31597;DHT22;18201;50.978;7.034;2023-06-14T03:01:45;15.90;1.00
31597;DHT22;18201;50.978;7.034;2023-06-14T03:02:17;15.90;99.90
31597;DHT22;18201;50.978;7.034;2023-06-14T03:02:48;15.90;99.90
31597;DHT22;18201;50.978;7.034;2023-06-14T03:03:18;15.90;99.90
31597;DHT22;18201;50.978;7.034;2023-06-14T03:03:50;15.90;99.90
31597;DHT22;18201;50.978;7.034;2023-06-14T03:04:22;15.90;99.90
31597;DHT22;18201;50.978;7.034;2023-06-14T03:04:52;15.90;1.00
31597;DHT22;18201;50.978;7.034;2023-06-14T03:05:24;15.90;1.00
31597;DHT22;18201;50.978;7.034;2023-06-14T03:05:58;15.90;1.00
31597;DHT22;18201;50.978;7.034;2023-06-14T03:06:35;15.90;99.90
31597;DHT22;18201;50.978;7.034;2023-06-14T03:07:06;15.90;99.90
31597;DHT22;18201;50.978;7.034;2023-06-14T03:07:40;15.80;99.90
31597;DHT22;18201;50.978;7.034;2023-06-14T03:08:11;15.90;99.90
31597;DHT22;18201;50.978;7.034;2023-06-14T03:08:47;15.80;63.20
31597;DHT22;18201;50.978;7.034;2023-06-14T03:09:19;15.90;1.00
31597;DHT22;18201;50.978;7.034;2023-06-14T03:09:52;15.90;99.90
31597;DHT22;18201;50.978;7.034;2023-06-14T03:10:22;15.80;99.90
31597;DHT22;18201;50.978;7.034;2023-06-14T03:10:54;15.80;55.30
31597;DHT22;18201;50.978;7.034;2023-06-14T03:11:26;15.80;99.90
31597;DHT22;18201;50.978;7.034;2023-06-14T03:11:57;15.90;99.90
31597;DHT22;18201;50.978;7.034;2023-06-14T03:12:29;15.90;1.00
31597;DHT22;18201;50.978;7.034;2023-06-14T03:13:00;15.80;99.90
31597;DHT22;18201;50.978;7.034;2023-06-14T03:13:32;15.80;99.90
31597;DHT22;18201;50.978;7.034;2023-06-14T03:14:04;15.80;99.90
31597;DHT22;18201;50.978;7.034;2023-06-14T03:14:35;15.80;99.90
31597;DHT22;18201;50.978;7.034;2023-06-14T03:15:06;15.80;1.00
31597;DHT22;18201;50.978;7.034;2023-06-14T03:15:39;15.80;27.20
31597;DHT22;18201;50.978;7.034;2023-06-14T03:16:11;15.80;89.40
31597;DHT22;18201;50.978;7.034;2023-06-14T03:16:42;15.80;99.90
31597;DHT22;18201;50.978;7.034;2023-06-14T03:17:14;15.80;99.90
31597;DHT22;18201;50.978;7.034;2023-06-14T03:17:45;15.80;99.90
31597;DHT22;18201;50.978;7.034;2023-06-14T03:18:19;15.80;22.30
31597;DHT22;18201;50.978;7.034;2023-06-14T03:18:53;15.80;99.90
31597;DHT22;18201;50.978;7.034;2023-06-14T03:19:25;15.80;99.90
31597;DHT22;18201;50.978;7.034;2023-06-14T03:19:56;15.80;99.90
31597;DHT22;18201;50.978;7.034;2023-06-14T03:20:27;15.80;1.00
31597;DHT22;18201;50.978;7.034;2023-06-14T03:20:59;15.80;99.90
31597;DHT22;18201;50.978;7.034;2023-06-14T03:21:31;15.90;99.90
31597;DHT22;18201;50.978;7.034;2023-06-14T03:22:03;15.80;99.90
31597;DHT22;18201;50.978;7.034;2023-06-14T03:22:35;15.80;96.00
31597;DHT22;18201;50.978;7.034;2023-06-14T03:23:06;15.80;1.00
31597;DHT22;18201;50.978;7.034;2023-06-14T03:23:37;15.80;1.00
31597;DHT22;18201;50.978;7.034;2023-06-14T03:24:09;15.80;1.00
31597;DHT22;18201;50.978;7.034;2023-06-14T03:24:39;15.80;1.00